NCAR-RAP Real-Time Weather Data

Output produced by METARs form (08 May 2021  02:01 UTC)
found at http://weather.rap.ucar.edu/surface/
 
KAAT 080055Z AUTO 31014G19KT 10SM CLR 16/M09 A3010 RMK AO2 SLP176 T01561089 $
KAAT 072355Z AUTO 31012G18KT 10SM CLR 16/M09 A3010 RMK AO2 SLP178 T01561094 10167 20111 56004 $
KAAT 072255Z AUTO 31014G19KT 10SM CLR 16/M09 A3010 RMK AO2 SLP175 T01561094 $
KAAT 072055Z AUTO 33012G19KT 10SM CLR 15/M08 A3012 RMK AO2 SLP180 T01501083 $
KAAT 071955Z AUTO 30006G15KT 10SM CLR 14/M07 A3013 RMK AO2 SLP182 T01391072 $
KAAT 071855Z AUTO 32010G15KT 280V360 10SM CLR 13/M06 A3012 RMK AO2 SLP184 T01281056 $
KAAT 071755Z AUTO 32010KT 10SM FEW065 11/M04 A3013 RMK AO2 SLP184 T01111044 10117 20056 51003
KAAT 071655Z AUTO 00000KT 10SM FEW040 BKN060 09/M02 A3012 RMK AO2 SLP186 T00941017
KAAT 071455Z AUTO 33010KT 10SM OVC060 07/M01 A3012 RMK AO2 SLP177 T00671006 51010
KAAT 071355Z AUTO 31005KT 10SM OVC055 07/M01 A3011 RMK AO2 SLP171 T00721006